Time;durP1;ratioP1;P1;durP2;ratioP2;P2;SDS_P1;SDS_P2;PMS_P1;PMS_P2;Temp;Humidity;BMP_temperature;BMP_pressure;BME280_temperature;BME280_humidity;BME280_pressure;Samples;Min_cycle;Max_cycle;Signal;HPM_P1;HPM_P2
2023/08/05 00:00:57;;;;;;;3.35;2.35;;;15.80;98.20;;;;;;4989381;28;90116;-80
2023/08/05 00:03:22;;;;;;;4.30;2.05;;;15.80;98.00;;;;;;4988920;28;91124;-80
2023/08/05 00:05:48;;;;;;;5.28;2.20;;;15.80;98.00;;;;;;4987437;28;87227;-80
2023/08/05 00:08:14;;;;;;;2.50;2.05;;;15.80;97.90;;;;;;4971359;28;87736;-80
2023/08/05 00:10:43;;;;;;;5.63;2.60;;;15.80;97.90;;;;;;4984236;28;91535;-80
2023/08/05 00:13:09;;;;;;;2.92;2.35;;;15.80;98.00;;;;;;4971589;28;89116;-80
2023/08/05 00:15:35;;;;;;;4.35;2.63;;;15.70;98.00;;;;;;4988908;28;87538;-80
2023/08/05 00:18:01;;;;;;;5.32;2.88;;;15.70;98.20;;;;;;4973719;28;87608;-80
2023/08/05 00:20:26;;;;;;;5.88;2.83;;;15.60;98.20;;;;;;4971081;28;88292;-80
2023/08/05 00:22:52;;;;;;;6.70;2.90;;;15.60;98.10;;;;;;4986501;28;94145;-80
2023/08/05 00:25:18;;;;;;;4.68;3.33;;;15.60;98.30;;;;;;4985513;28;87625;-80
2023/08/05 00:27:44;;;;;;;6.55;3.28;;;15.60;98.40;;;;;;4973181;28;87070;-80
2023/08/05 00:30:10;;;;;;;7.28;3.40;;;15.50;98.40;;;;;;4986348;28;90428;-80
2023/08/05 00:32:36;;;;;;;7.18;2.92;;;15.50;98.50;;;;;;4973065;28;88566;-80
2023/08/05 00:35:06;;;;;;;5.45;3.10;;;15.50;98.50;;;;;;4985392;28;88092;-80
2023/08/05 00:37:33;;;;;;;6.47;2.92;;;15.50;98.60;;;;;;4983427;28;91128;-80
2023/08/05 00:40:00;;;;;;;4.82;2.78;;;15.40;98.40;;;;;;4973998;28;87149;-80
2023/08/05 00:42:28;;;;;;;5.22;3.08;;;15.40;98.30;;;;;;4970150;28;91410;-80
2023/08/05 00:44:54;;;;;;;5.93;3.10;;;15.40;98.30;;;;;;4969641;28;87723;-80
2023/08/05 00:47:21;;;;;;;4.15;2.88;;;15.40;98.20;;;;;;4968533;28;90771;-80
2023/08/05 00:49:49;;;;;;;6.30;3.25;;;15.40;98.10;;;;;;4986454;28;91618;-80
2023/08/05 00:52:16;;;;;;;3.55;2.95;;;15.40;98.00;;;;;;4972299;28;86738;-80
2023/08/05 00:54:43;;;;;;;4.75;2.83;;;15.30;98.00;;;;;;4989326;28;87761;-80
2023/08/05 00:57:12;;;;;;;7.00;3.60;;;15.30;97.80;;;;;;4979409;28;87883;-80
2023/08/05 00:59:38;;;;;;;5.75;3.00;;;15.30;97.90;;;;;;4986976;28;92098;-80
2023/08/05 01:02:04;;;;;;;7.30;4.10;;;15.30;97.80;;;;;;4968035;28;92118;-80
2023/08/05 01:04:30;;;;;;;6.40;3.80;;;15.20;98.00;;;;;;4971305;28;87815;-80
2023/08/05 01:06:57;;;;;;;3.28;2.88;;;15.20;98.10;;;;;;4972514;28;87317;-80
2023/08/05 01:09:23;;;;;;;5.63;3.15;;;15.10;97.90;;;;;;4977412;28;91271;-80
2023/08/05 01:11:49;;;;;;;4.03;3.40;;;15.10;97.90;;;;;;4972051;28;88530;-80
2023/08/05 01:14:15;;;;;;;9.05;3.50;;;15.10;97.90;;;;;;4985438;28;87843;-80
2023/08/05 01:16:40;;;;;;;7.05;3.58;;;15.00;98.00;;;;;;4967459;28;90188;-80
2023/08/05 01:19:13;;;;;;;6.20;3.20;;;14.90;97.90;;;;;;4983928;28;91767;-80
2023/08/05 01:22:12;;;;;;;7.70;3.70;;;14.90;97.90;;;;;;4970867;28;87842;-80
2023/08/05 01:25:11;;;;;;;4.45;3.40;;;14.90;98.00;;;;;;4990494;28;88385;-80
2023/08/05 01:27:38;;;;;;;5.38;3.13;;;14.80;97.90;;;;;;4974888;28;94660;-80
2023/08/05 01:30:04;;;;;;;5.93;3.30;;;14.80;97.80;;;;;;4972676;28;88646;-80
2023/08/05 01:32:32;;;;;;;4.93;3.17;;;14.70;97.90;;;;;;4970887;28;91393;-80
2023/08/05 01:34:58;;;;;;;6.28;3.67;;;14.70;97.80;;;;;;4987864;28;87784;-80
2023/08/05 01:37:24;;;;;;;4.35;3.83;;;14.70;97.80;;;;;;4971828;28;89183;-80
2023/08/05 01:39:49;;;;;;;5.47;3.20;;;14.60;97.80;;;;;;4992226;28;89429;-80
2023/08/05 01:42:15;;;;;;;5.57;3.60;;;14.50;97.80;;;;;;4974489;28;88654;-80
2023/08/05 01:44:41;;;;;;;4.68;3.25;;;14.40;98.10;;;;;;4987977;28;87349;-80
2023/08/05 01:47:06;;;;;;;3.65;3.20;;;14.40;98.00;;;;;;4974238;28;87791;-80
2023/08/05 01:49:32;;;;;;;9.77;3.83;;;14.40;98.00;;;;;;4988073;28;94250;-80
2023/08/05 01:51:58;;;;;;;9.43;4.80;;;14.30;98.40;;;;;;4974769;28;89410;-80
2023/08/05 01:54:23;;;;;;;6.95;3.90;;;14.30;98.80;;;;;;4989990;28;87553;-80
2023/08/05 01:56:49;;;;;;;4.63;4.05;;;14.20;98.90;;;;;;4973878;28;87785;-80
2023/08/05 01:59:15;;;;;;;9.13;4.53;;;14.20;99.10;;;;;;4972480;28;90278;-80
2023/08/05 02:01:47;;;;;;;5.55;4.40;;;14.10;99.40;;;;;;4973005;28;89255;-80
2023/08/05 02:04:13;;;;;;;6.20;4.55;;;14.00;99.30;;;;;;4971563;28;87969;-80
2023/08/05 02:06:40;;;;;;;7.32;4.75;;;14.00;99.50;;;;;;4972540;28;88106;-80
2023/08/05 02:09:06;;;;;;;10.90;5.25;;;13.90;99.60;;;;;;4974056;28;88334;-80
2023/08/05 02:11:32;;;;;;;7.90;5.65;;;13.80;99.70;;;;;;4988331;28;88748;-79
2023/08/05 02:13:58;;;;;;;9.23;6.30;;;13.80;99.90;;;;;;4989189;28;89718;-80
2023/08/05 02:16:23;;;;;;;8.70;5.75;;;13.80;99.90;;;;;;4988530;28;89301;-80
2023/08/05 02:18:52;;;;;;;8.35;5.35;;;13.80;99.90;;;;;;4987696;28;90473;-79
2023/08/05 02:21:18;;;;;;;6.25;4.90;;;13.80;99.90;;;;;;4972568;28;87692;-80
2023/08/05 02:23:44;;;;;;;8.35;5.68;;;13.70;99.90;;;;;;4973041;28;87239;-80
2023/08/05 02:26:10;;;;;;;10.52;5.88;;;13.70;99.90;;;;;;4969562;28;90975;-80
2023/08/05 02:28:35;;;;;;;7.72;5.22;;;13.70;99.90;;;;;;4971722;28;87388;-80
2023/08/05 02:31:01;;;;;;;7.88;5.25;;;13.70;99.90;;;;;;4990598;28;91015;-80
2023/08/05 02:33:27;;;;;;;7.28;4.55;;;13.70;99.90;;;;;;4972446;28;87020;-80
2023/08/05 02:36:00;;;;;;;8.40;5.10;;;13.70;99.80;;;;;;4973983;28;87483;-80
2023/08/05 02:38:26;;;;;;;8.23;5.50;;;13.60;99.70;;;;;;4969251;28;92224;-80
2023/08/05 02:40:55;;;;;;;9.05;4.13;;;13.60;99.70;;;;;;4971495;28;91978;-80
2023/08/05 02:43:21;;;;;;;10.07;5.18;;;13.50;99.60;;;;;;4969473;28;87235;-80
2023/08/05 02:45:57;;;;;;;9.27;5.53;;;13.50;99.60;;;;;;4971879;28;91247;-80
2023/08/05 02:48:23;;;;;;;8.13;4.05;;;13.50;99.70;;;;;;4970424;28;88397;-79
2023/08/05 02:50:50;;;;;;;7.03;4.38;;;13.50;99.80;;;;;;4986799;28;91704;-80
2023/08/05 02:53:16;;;;;;;7.93;5.13;;;13.50;99.60;;;;;;4971365;28;87825;-80
2023/08/05 02:55:41;;;;;;;10.48;5.50;;;13.40;99.50;;;;;;4972367;28;87000;-80
2023/08/05 02:58:07;;;;;;;7.50;5.70;;;13.40;99.50;;;;;;4968694;28;93728;-80
2023/08/05 03:00:33;;;;;;;7.60;5.35;;;13.40;99.80;;;;;;4987754;28;91413;-80
2023/08/05 03:02:59;;;;;;;17.27;6.90;;;13.30;99.80;;;;;;4973018;28;88944;-80
2023/08/05 03:05:25;;;;;;;11.27;6.53;;;13.40;99.90;;;;;;4984964;28;90396;-80
2023/08/05 03:07:50;;;;;;;6.70;5.63;;;13.30;99.90;;;;;;4985116;28;91204;-80
2023/08/05 03:10:16;;;;;;;7.63;5.03;;;13.30;99.90;;;;;;4986429;28;91180;-80
2023/08/05 03:12:42;;;;;;;7.25;5.45;;;13.30;99.90;;;;;;4989100;28;87138;-80
2023/08/05 03:15:08;;;;;;;10.70;5.50;;;13.30;99.90;;;;;;4972259;28;87616;-80
2023/08/05 03:17:34;;;;;;;8.82;5.57;;;13.30;99.90;;;;;;4986016;28;91403;-80
2023/08/05 03:20:04;;;;;;;14.48;7.68;;;13.30;99.90;;;;;;4970996;28;88161;-80
2023/08/05 03:22:30;;;;;;;14.48;7.82;;;13.30;99.90;;;;;;4986726;28;87446;-80
2023/08/05 03:24:55;;;;;;;15.77;7.80;;;13.30;99.90;;;;;;4987874;28;90510;-80
2023/08/05 03:27:21;;;;;;;11.50;7.55;;;13.30;99.90;;;;;;4968332;28;93369;-80
2023/08/05 03:29:47;;;;;;;11.73;7.70;;;13.20;99.90;;;;;;4986028;28;92827;-80
2023/08/05 03:32:13;;;;;;;13.25;8.30;;;13.20;99.90;;;;;;4985361;28;87635;-80
2023/08/05 03:34:39;;;;;;;14.43;8.35;;;13.20;99.90;;;;;;4969816;28;89833;-80
2023/08/05 03:37:05;;;;;;;14.73;8.60;;;13.20;99.90;;;;;;4985435;28;90821;-80
2023/08/05 03:39:30;;;;;;;15.05;8.13;;;13.10;99.90;;;;;;4972196;28;89932;-80
2023/08/05 03:41:56;;;;;;;15.80;8.70;;;13.20;99.90;;;;;;4990656;28;87412;-81
2023/08/05 03:44:22;;;;;;;13.90;8.68;;;13.20;99.90;;;;;;4970983;28;88837;-80
2023/08/05 03:46:48;;;;;;;17.23;8.70;;;13.10;99.90;;;;;;4986965;28;91702;-80
2023/08/05 03:49:13;;;;;;;13.50;8.98;;;13.10;99.90;;;;;;4988119;28;91487;-80
2023/08/05 03:51:39;;;;;;;11.85;8.13;;;13.20;99.90;;;;;;4971660;28;88653;-80
2023/08/05 03:54:05;;;;;;;17.23;8.80;;;13.10;99.90;;;;;;4971175;28;90302;-80
2023/08/05 03:56:30;;;;;;;13.50;9.25;;;13.10;99.90;;;;;;4971653;28;88181;-79
2023/08/05 03:58:57;;;;;;;15.45;9.50;;;13.10;99.90;;;;;;4971202;28;87449;-80
2023/08/05 04:01:23;;;;;;;15.60;8.55;;;13.10;99.90;;;;;;4990768;28;87861;-80
2023/08/05 04:03:50;;;;;;;17.98;9.05;;;13.10;99.90;;;;;;4974207;28;87417;-81
2023/08/05 04:06:16;;;;;;;13.43;8.48;;;13.10;99.90;;;;;;4978600;28;89040;-80
2023/08/05 04:08:42;;;;;;;14.63;8.25;;;13.00;99.90;;;;;;4987868;28;89938;-80
2023/08/05 04:11:08;;;;;;;13.95;8.10;;;13.10;99.90;;;;;;4973929;28;87496;-80
2023/08/05 04:13:37;;;;;;;14.32;8.35;;;13.10;99.90;;;;;;4975282;28;90706;-80
2023/08/05 04:16:03;;;;;;;13.43;7.88;;;13.00;99.90;;;;;;4975768;28;88374;-81
2023/08/05 04:18:37;;;;;;;14.50;8.27;;;13.00;99.90;;;;;;4980900;28;90804;-81
2023/08/05 04:21:08;;;;;;;16.02;8.20;;;13.10;99.90;;;;;;4973690;28;91116;-81
2023/08/05 04:23:34;;;;;;;15.80;8.82;;;13.00;99.90;;;;;;4978219;28;87458;-80
2023/08/05 04:26:01;;;;;;;13.50;7.40;;;13.10;99.90;;;;;;4983182;28;89596;-81
2023/08/05 04:28:27;;;;;;;11.73;7.25;;;13.10;99.90;;;;;;4976100;28;90942;-80
2023/08/05 04:30:53;;;;;;;11.43;7.28;;;13.10;99.90;;;;;;4977744;28;87893;-81
2023/08/05 04:33:19;;;;;;;12.40;7.55;;;13.10;99.90;;;;;;4975056;28;87560;-80
2023/08/05 04:35:49;;;;;;;9.73;6.15;;;13.10;99.90;;;;;;4989879;28;90160;-80
2023/08/05 04:38:15;;;;;;;12.55;8.07;;;13.10;99.90;;;;;;4972405;28;88202;-81
2023/08/05 04:40:42;;;;;;;10.38;6.45;;;13.10;99.90;;;;;;4973642;28;88730;-80
2023/08/05 04:43:08;;;;;;;11.60;7.38;;;13.20;99.90;;;;;;4975587;28;89505;-80
2023/08/05 04:45:35;;;;;;;10.20;7.05;;;13.20;99.90;;;;;;4991482;28;90214;-80
2023/08/05 04:48:01;;;;;;;9.65;6.65;;;13.20;99.90;;;;;;4970460;28;88151;-80
2023/08/05 04:50:26;;;;;;;13.15;7.70;;;13.20;99.90;;;;;;4971499;28;87522;-80
2023/08/05 04:52:52;;;;;;;11.60;7.55;;;13.30;99.90;;;;;;4973058;28;87843;-80
2023/08/05 04:55:18;;;;;;;9.23;6.20;;;13.30;99.90;;;;;;4969836;28;90835;-80
2023/08/05 04:57:52;;;;;;;10.55;6.85;;;13.30;99.90;;;;;;4976262;28;91176;-81
2023/08/05 05:00:18;;;;;;;15.63;8.32;;;13.30;99.90;;;;;;4994460;28;87597;-80
2023/08/05 05:02:44;;;;;;;9.70;7.38;;;13.30;99.90;;;;;;4977106;28;88993;-80
2023/08/05 05:05:10;;;;;;;14.35;8.07;;;13.30;99.90;;;;;;4974154;28;91199;-80
2023/08/05 05:07:36;;;;;;;15.13;7.68;;;13.30;99.90;;;;;;4982296;28;90617;-80
2023/08/05 05:10:02;;;;;;;12.85;8.93;;;13.40;99.90;;;;;;4978251;28;87451;-80
2023/08/05 05:12:27;;;;;;;16.30;9.00;;;13.40;99.90;;;;;;4993746;28;94557;-80
2023/08/05 05:14:53;;;;;;;15.77;9.25;;;13.40;99.90;;;;;;4977517;28;87610;-80
2023/08/05 05:17:19;;;;;;;16.05;8.80;;;13.30;99.90;;;;;;4978826;28;90045;-80
2023/08/05 05:19:44;;;;;;;12.57;8.95;;;13.30;99.90;;;;;;4980428;28;86856;-80
2023/08/05 05:22:16;;;;;;;16.88;9.20;;;13.30;99.90;;;;;;4991164;28;90456;-79
2023/08/05 05:24:42;;;;;;;13.00;8.77;;;13.30;99.90;;;;;;4977795;28;88384;-79
2023/08/05 05:27:09;;;;;;;14.77;9.50;;;13.40;99.90;;;;;;4977207;28;91277;-80
2023/08/05 05:29:35;;;;;;;15.50;9.63;;;13.40;99.90;;;;;;4981303;28;88891;-80
2023/08/05 05:32:00;;;;;;;18.60;9.80;;;13.40;99.90;;;;;;4978923;28;87101;-80
2023/08/05 05:34:26;;;;;;;13.68;9.15;;;13.50;99.90;;;;;;4976062;28;88173;-82
2023/08/05 05:36:52;;;;;;;16.77;10.02;;;13.50;99.90;;;;;;4977268;28;88157;-80
2023/08/05 05:39:17;;;;;;;15.98;9.45;;;13.60;99.90;;;;;;4975220;28;87672;-79
2023/08/05 05:41:43;;;;;;;15.43;9.65;;;13.70;99.90;;;;;;4974401;28;88219;-80
2023/08/05 05:44:09;;;;;;;20.13;10.18;;;13.70;99.90;;;;;;4989424;28;89391;-80
2023/08/05 05:46:35;;;;;;;15.23;10.10;;;13.90;99.90;;;;;;4987283;28;89874;-80
2023/08/05 05:49:03;;;;;;;16.50;9.82;;;14.00;99.90;;;;;;4988209;28;87474;-79
2023/08/05 05:51:28;;;;;;;22.95;10.43;;;14.10;99.90;;;;;;4972449;28;94891;-80
2023/08/05 05:53:55;;;;;;;15.20;10.05;;;14.20;99.90;;;;;;4970962;28;89910;-80
2023/08/05 05:56:21;;;;;;;17.33;9.43;;;14.30;99.90;;;;;;4970852;28;91278;-80
2023/08/05 05:58:48;;;;;;;14.57;9.18;;;14.40;99.90;;;;;;4988344;28;87234;-81
2023/08/05 06:01:14;;;;;;;13.50;9.38;;;14.50;99.90;;;;;;4991972;28;89020;-80
2023/08/05 06:03:41;;;;;;;15.30;9.02;;;14.60;99.90;;;;;;4991007;28;91849;-81
2023/08/05 06:06:11;;;;;;;19.33;8.43;;;14.80;99.90;;;;;;4976133;28;88014;-80
2023/08/05 06:08:37;;;;;;;16.90;8.73;;;14.90;99.90;;;;;;4981289;28;87961;-80
2023/08/05 06:11:03;;;;;;;15.77;8.07;;;15.00;99.90;;;;;;4988824;28;89903;-80
2023/08/05 06:13:31;;;;;;;14.48;8.85;;;15.10;99.90;;;;;;4987762;28;91150;-80
2023/08/05 06:15:57;;;;;;;15.55;8.15;;;15.20;99.90;;;;;;4971204;28;89431;-80
2023/08/05 06:18:23;;;;;;;16.45;8.05;;;15.30;99.90;;;;;;4970407;28;88710;-80
2023/08/05 06:20:55;;;;;;;10.93;8.00;;;15.40;99.90;;;;;;4974510;28;90703;-82
2023/08/05 06:25:58;;;;;;;12.77;7.40;;;15.60;99.90;;;;;;5038586;22;87174;-80
2023/08/05 06:28:24;;;;;;;16.08;8.07;;;15.70;99.90;;;;;;4982067;28;87581;-80
2023/08/05 06:30:50;;;;;;;15.25;8.23;;;15.80;99.90;;;;;;4987178;28;87829;-80
2023/08/05 06:33:15;;;;;;;12.18;8.00;;;15.90;99.90;;;;;;4983663;28;88595;-80
2023/08/05 06:35:41;;;;;;;12.35;8.10;;;15.90;99.90;;;;;;4982066;28;87346;-80
2023/08/05 06:38:07;;;;;;;12.27;8.43;;;16.00;99.90;;;;;;4977534;28;87969;-80
2023/08/05 06:40:35;;;;;;;12.10;8.00;;;16.10;99.90;;;;;;4975939;28;90899;-81
2023/08/05 06:43:01;;;;;;;11.23;8.13;;;16.20;99.80;;;;;;4970169;28;91982;-80
2023/08/05 06:45:27;;;;;;;14.00;7.95;;;16.30;99.80;;;;;;4980618;28;89882;-81
2023/08/05 06:47:52;;;;;;;14.23;7.53;;;16.40;99.70;;;;;;4954182;28;87821;-80
2023/08/05 06:50:18;;;;;;;10.50;7.63;;;16.60;99.80;;;;;;4979404;28;90133;-81
2023/08/05 06:52:44;;;;;;;14.43;8.00;;;16.70;99.40;;;;;;4962859;28;90943;-80
2023/08/05 06:55:09;;;;;;;14.43;7.68;;;16.80;99.00;;;;;;4963290;28;90648;-80
2023/08/05 06:57:36;;;;;;;10.57;7.18;;;16.90;99.00;;;;;;4964762;28;87903;-80
2023/08/05 07:00:02;;;;;;;12.50;7.22;;;17.00;98.90;;;;;;4978932;28;90135;-79
2023/08/05 07:02:28;;;;;;;10.13;7.45;;;17.10;98.60;;;;;;4953236;28;90275;-80
2023/08/05 07:04:54;;;;;;;9.38;5.75;;;17.20;98.40;;;;;;4963309;28;90979;-80
2023/08/05 07:07:20;;;;;;;10.27;6.28;;;17.30;97.70;;;;;;4969847;28;88319;-79
2023/08/05 07:09:46;;;;;;;9.40;5.70;;;17.40;98.10;;;;;;4963412;28;89301;-80
2023/08/05 07:12:12;;;;;;;7.75;4.63;;;17.50;97.20;;;;;;4971757;28;90855;-80
2023/08/05 07:14:38;;;;;;;8.38;5.55;;;17.60;96.90;;;;;;4964797;28;92308;-80
2023/08/05 07:17:04;;;;;;;7.70;5.00;;;17.70;96.80;;;;;;4967347;28;87436;-80
2023/08/05 07:19:30;;;;;;;11.55;5.88;;;17.80;96.80;;;;;;4965399;28;91479;-80
2023/08/05 07:21:56;;;;;;;6.88;4.75;;;17.90;96.70;;;;;;4980880;28;92178;-79
2023/08/05 07:24:22;;;;;;;5.32;4.50;;;18.00;96.70;;;;;;4964716;28;89584;-80
2023/08/05 07:26:51;;;;;;;9.38;4.45;;;18.10;95.80;;;;;;4964366;28;87526;-79
2023/08/05 07:29:17;;;;;;;8.88;4.70;;;18.20;96.20;;;;;;4960894;28;90055;-80
2023/08/05 07:31:43;;;;;;;6.88;4.32;;;18.40;95.50;;;;;;4989788;28;92125;-82
2023/08/05 07:34:09;;;;;;;7.20;3.67;;;18.40;95.50;;;;;;4971974;28;90870;-80
2023/08/05 07:36:36;;;;;;;8.82;4.40;;;18.40;95.10;;;;;;4977864;28;87377;-81
2023/08/05 07:39:06;;;;;;;5.43;3.67;;;18.50;94.70;;;;;;4979845;28;89148;-81
2023/08/05 07:41:32;;;;;;;6.10;3.80;;;18.50;95.00;;;;;;4988802;28;90638;-81
2023/08/05 07:43:58;;;;;;;6.43;3.70;;;18.70;95.10;;;;;;4997244;28;89772;-84
2023/08/05 07:46:31;;;;;;;5.97;3.70;;;18.80;95.10;;;;;;4973524;28;87968;-82
2023/08/05 07:48:58;;;;;;;6.90;3.90;;;18.90;94.50;;;;;;4975253;28;91778;-81
2023/08/05 07:51:45;;;;;;;9.25;3.47;;;19.00;94.20;;;;;;4981254;28;90542;-83
2023/08/05 07:59:25;;;;;;;5.75;3.47;;;19.30;92.60;;;;;;5634842;22;88512;-81
2023/08/05 08:01:53;;;;;;;3.50;2.78;;;19.30;92.50;;;;;;4959397;28;90695;-78
2023/08/05 08:04:21;;;;;;;4.57;3.10;;;19.30;91.70;;;;;;4974729;28;91227;-79
2023/08/05 08:06:48;;;;;;;7.88;3.13;;;19.30;92.60;;;;;;4961797;28;87573;-79
2023/08/05 08:09:14;;;;;;;8.43;3.15;;;19.40;92.50;;;;;;4959680;28;87757;-80
2023/08/05 08:11:40;;;;;;;7.18;3.22;;;19.50;92.00;;;;;;4959543;28;88114;-79
2023/08/05 08:14:06;;;;;;;7.78;3.15;;;19.50;92.00;;;;;;4971229;28;89863;-79
2023/08/05 08:16:37;;;;;;;5.15;3.30;;;19.50;91.60;;;;;;4964446;28;87690;-80
2023/08/05 08:19:04;;;;;;;4.03;2.67;;;19.50;91.10;;;;;;4971000;28;87333;-80
2023/08/05 08:21:30;;;;;;;7.78;3.45;;;19.50;91.10;;;;;;4965752;28;89321;-80
2023/08/05 08:23:55;;;;;;;5.95;3.05;;;19.40;91.20;;;;;;4950500;28;92383;-79
2023/08/05 08:26:21;;;;;;;5.80;2.92;;;19.30;91.50;;;;;;4954786;28;87636;-79
2023/08/05 08:28:52;;;;;;;6.20;3.10;;;19.30;91.20;;;;;;4959763;28;88034;-81
2023/08/05 08:31:18;;;;;;;8.18;3.28;;;19.30;91.30;;;;;;4972338;28;91550;-79
2023/08/05 08:33:43;;;;;;;4.28;2.75;;;19.30;91.60;;;;;;4960671;28;88795;-79
2023/08/05 08:36:12;;;;;;;6.75;3.70;;;19.40;91.80;;;;;;4960110;28;87886;-80
2023/08/05 08:38:42;;;;;;;4.10;2.80;;;19.40;92.00;;;;;;4979569;28;87817;-81
2023/08/05 08:41:24;;;;;;;6.10;3.58;;;19.40;92.10;;;;;;4931065;28;90745;-82
2023/08/05 08:43:58;;;;;;;5.35;3.40;;;19.60;92.20;;;;;;4976730;28;90011;-82
2023/08/05 08:46:25;;;;;;;7.95;3.80;;;19.60;91.00;;;;;;5164136;22;88312;-82
2023/08/05 08:48:54;;;;;;;6.68;3.78;;;19.40;91.10;;;;;;4983897;28;89395;-82
2023/08/05 08:51:26;;;;;;;4.63;3.60;;;19.40;91.30;;;;;;5015516;28;90941;-81
2023/08/05 08:53:54;;;;;;;10.00;4.53;;;19.20;91.20;;;;;;5012554;28;91414;-81
2023/08/05 08:56:22;;;;;;;6.60;4.03;;;19.10;91.70;;;;;;4997746;28;87444;-81
2023/08/05 08:58:54;;;;;;;6.28;3.92;;;19.10;92.30;;;;;;5002127;28;87222;-82
2023/08/05 09:01:39;;;;;;;5.93;3.95;;;19.10;92.00;;;;;;4994618;28;88258;-82
2023/08/05 09:04:41;;;;;;;7.30;4.38;;;19.00;92.10;;;;;;4998805;28;86933;-81
2023/08/05 09:07:51;;;;;;;5.18;4.05;;;18.90;92.10;;;;;;4992859;28;87103;-81
2023/08/05 09:10:31;;;;;;;4.78;4.05;;;18.90;92.10;;;;;;4923777;28;89425;-81
2023/08/05 09:13:03;;;;;;;4.88;3.85;;;18.90;92.30;;;;;;4939125;28;88485;-81
2023/08/05 09:16:01;;;;;;;9.13;4.20;;;19.00;91.70;;;;;;4977647;28;93073;-82
2023/08/05 09:18:31;;;;;;;8.70;3.92;;;18.90;91.30;;;;;;4998720;28;87110;-81
2023/08/05 09:21:02;;;;;;;6.18;4.30;;;18.90;92.00;;;;;;5008898;28;89385;-82
2023/08/05 09:23:56;;;;;;;5.60;4.53;;;18.90;91.80;;;;;;5000032;28;89368;-82
2023/08/05 09:26:35;;;;;;;7.68;4.65;;;19.00;91.80;;;;;;4996077;28;87929;-82
2023/08/05 09:29:28;;;;;;;6.88;3.83;;;18.90;91.20;;;;;;5002862;28;87124;-81
2023/08/05 09:32:32;;;;;;;5.47;4.10;;;18.80;91.30;;;;;;4999689;28;86379;-81
2023/08/05 09:34:58;;;;;;;5.07;4.05;;;18.80;91.50;;;;;;4986025;28;90145;-80
2023/08/05 09:37:26;;;;;;;4.28;3.83;;;18.90;91.80;;;;;;4978149;28;90103;-81
2023/08/05 09:39:53;;;;;;;5.00;3.75;;;18.90;92.00;;;;;;5004636;28;88587;-81
2023/08/05 09:42:26;;;;;;;4.72;4.05;;;19.00;91.70;;;;;;5009788;28;90221;-81
2023/08/05 09:44:54;;;;;;;5.05;3.90;;;19.10;91.30;;;;;;4996799;28;88063;-81
2023/08/05 09:47:47;;;;;;;5.50;3.75;;;19.10;90.80;;;;;;5004198;28;87279;-82
2023/08/05 10:27:09;;;;;;;5.45;1.88;;;19.90;89.30;;;;;;4955351;28;87950;-80
2023/08/05 10:29:50;;;;;;;;;;;19.90;88.60;;;;;;4952055;28;88303;-80
2023/08/05 10:32:15;;;;;;;3.10;1.85;;;20.10;87.20;;;;;;4965774;28;88421;-79
2023/08/05 10:34:41;;;;;;;2.38;1.45;;;20.10;84.70;;;;;;4949617;28;87604;-79
2023/08/05 10:37:07;;;;;;;3.95;1.63;;;20.00;82.40;;;;;;4947950;28;89087;-80
2023/08/05 10:39:42;;;;;;;2.53;1.50;;;19.90;83.20;;;;;;4950671;28;90236;-81
2023/08/05 10:42:27;;;;;;;4.03;1.98;;;19.80;83.60;;;;;;4946212;28;87015;-81
2023/08/05 10:45:07;;;;;;;2.28;1.83;;;19.80;83.70;;;;;;4946717;28;87576;-80
2023/08/05 10:47:33;;;;;;;3.30;1.38;;;19.70;84.10;;;;;;4940102;28;90234;-80
2023/08/05 10:50:00;;;;;;;2.42;1.70;;;19.60;84.40;;;;;;4943134;28;92798;-80
2023/08/05 10:52:26;;;;;;;3.25;1.52;;;19.40;86.10;;;;;;4945171;28;87615;-81
2023/08/05 10:54:53;;;;;;;2.22;1.48;;;19.40;84.20;;;;;;4950717;28;87468;-79
2023/08/05 10:57:43;;;;;;;3.45;1.70;;;19.40;85.20;;;;;;4943073;28;88708;-80
2023/08/05 11:00:17;;;;;;;2.63;1.65;;;19.30;84.70;;;;;;4942369;28;92030;-80
2023/08/05 11:02:43;;;;;;;4.75;1.70;;;19.20;85.20;;;;;;4961468;28;87336;-80
2023/08/05 11:05:09;;;;;;;3.47;1.75;;;19.20;87.30;;;;;;4944028;28;90385;-79
2023/08/05 11:07:40;;;;;;;3.88;1.65;;;19.30;86.90;;;;;;4958106;28;92368;-82
2023/08/05 11:10:07;;;;;;;4.57;1.50;;;19.30;86.90;;;;;;4970442;28;88429;-81
2023/08/05 11:13:02;;;;;;;3.20;1.73;;;19.30;85.30;;;;;;5679334;22;89736;-82
2023/08/05 11:15:28;;;;;;;4.45;2.00;;;19.30;85.60;;;;;;5037734;27;86077;-80
2023/08/05 11:17:54;;;;;;;4.25;1.50;;;19.30;85.80;;;;;;5301324;22;88431;-79
2023/08/05 11:20:20;;;;;;;2.85;1.25;;;19.20;84.40;;;;;;4995772;28;89045;-79
2023/08/05 11:22:52;;;;;;;2.83;1.77;;;19.00;85.10;;;;;;5752486;22;89540;-80
2023/08/05 11:25:18;;;;;;;4.90;1.70;;;18.90;86.20;;;;;;4967920;28;95071;-80
2023/08/05 11:27:49;;;;;;;4.85;1.85;;;18.80;85.80;;;;;;4966313;28;88648;-80
2023/08/05 11:30:17;;;;;;;3.03;1.77;;;18.80;86.80;;;;;;4969262;28;88002;-80
2023/08/05 11:32:55;;;;;;;4.63;1.48;;;18.80;87.70;;;;;;4964602;28;87253;-80
2023/08/05 11:35:21;;;;;;;7.50;2.03;;;18.70;88.80;;;;;;4966359;28;87893;-80
2023/08/05 11:37:47;;;;;;;3.20;1.40;;;18.80;87.40;;;;;;4968283;28;87781;-80
2023/08/05 11:40:13;;;;;;;3.38;1.55;;;18.70;87.00;;;;;;4966739;28;91650;-80
2023/08/05 11:42:40;;;;;;;2.47;1.30;;;18.80;87.10;;;;;;4950306;28;87461;-80
2023/08/05 11:45:15;;;;;;;2.53;1.48;;;18.80;87.80;;;;;;4968406;28;87986;-80
2023/08/05 11:47:42;;;;;;;2.40;1.30;;;18.80;88.20;;;;;;4965735;28;89557;-80
2023/08/05 11:50:09;;;;;;;2.75;1.58;;;18.80;89.00;;;;;;4948843;28;95760;-80
2023/08/05 11:52:36;;;;;;;3.88;1.73;;;18.80;87.60;;;;;;4965628;28;87672;-80
2023/08/05 11:55:04;;;;;;;1.65;1.35;;;18.80;88.10;;;;;;4958239;28;87998;-80
2023/08/05 11:57:30;;;;;;;3.17;1.80;;;18.80;89.20;;;;;;4967078;28;94603;-80
2023/08/05 12:00:08;;;;;;;2.35;1.48;;;18.80;90.00;;;;;;4967647;28;88214;-80
2023/08/05 12:02:34;;;;;;;2.33;1.35;;;18.80;89.40;;;;;;4966834;28;87764;-80
2023/08/05 12:05:00;;;;;;;2.40;1.77;;;18.80;89.40;;;;;;4970740;28;86933;-80
2023/08/05 12:07:26;;;;;;;2.95;1.48;;;18.80;89.70;;;;;;4971754;28;90710;-80
2023/08/05 12:10:10;;;;;;;1.38;1.05;;;18.80;89.70;;;;;;4964484;28;87792;-80
2023/08/05 12:12:37;;;;;;;2.83;1.20;;;18.80;88.20;;;;;;4960420;28;88513;-80
2023/08/05 12:15:14;;;;;;;2.25;1.15;;;18.70;87.80;;;;;;4964144;28;88521;-81
2023/08/05 12:17:46;;;;;;;2.97;1.40;;;18.70;88.10;;;;;;4980268;28;89225;-81
2023/08/05 12:20:24;;;;;;;3.38;1.90;;;18.60;88.80;;;;;;4949240;28;89499;-80
2023/08/05 12:22:50;;;;;;;5.03;1.75;;;18.60;88.50;;;;;;4966354;28;87443;-79
2023/08/05 12:25:17;;;;;;;3.20;1.35;;;18.60;90.10;;;;;;4962962;28;87466;-79
2023/08/05 12:27:43;;;;;;;3.50;1.40;;;18.70;90.20;;;;;;4965920;28;88396;-79
2023/08/05 12:30:10;;;;;;;4.68;1.80;;;18.70;90.50;;;;;;4954954;28;89863;-79
2023/08/05 12:32:36;;;;;;;4.30;1.92;;;18.70;90.80;;;;;;4946264;28;87495;-79
2023/08/05 12:35:05;;;;;;;4.85;1.98;;;18.80;90.50;;;;;;4964517;28;87431;-80
2023/08/05 12:37:36;;;;;;;5.85;2.47;;;18.70;90.10;;;;;;4961016;28;91567;-79
2023/08/05 12:40:06;;;;;;;4.40;2.13;;;18.60;89.80;;;;;;4948152;28;91136;-80
2023/08/05 12:42:32;;;;;;;5.15;2.53;;;18.50;90.40;;;;;;4964907;28;87387;-80
2023/08/05 12:45:00;;;;;;;2.75;2.05;;;18.50;90.90;;;;;;4964136;28;89608;-79
2023/08/05 12:47:27;;;;;;;4.00;1.70;;;18.50;91.10;;;;;;4964466;28;90964;-79
2023/08/05 12:49:52;;;;;;;2.67;1.65;;;18.40;90.10;;;;;;4946895;28;90536;-79
2023/08/05 12:52:18;;;;;;;4.32;1.67;;;18.30;91.10;;;;;;4964042;28;87940;-80
2023/08/05 12:54:44;;;;;;;3.47;1.63;;;18.30;91.50;;;;;;4950454;28;89294;-80
2023/08/05 12:57:09;;;;;;;4.55;1.60;;;18.20;91.70;;;;;;4954307;28;90676;-80
2023/08/05 12:59:35;;;;;;;2.85;1.73;;;18.10;91.20;;;;;;4968405;28;89152;-80
2023/08/05 13:02:01;;;;;;;5.20;1.52;;;18.00;92.10;;;;;;4952706;28;88493;-80
2023/08/05 13:04:27;;;;;;;2.47;1.30;;;17.90;91.80;;;;;;4951609;28;89429;-81
2023/08/05 13:06:53;;;;;;;2.20;1.30;;;17.90;91.70;;;;;;4970771;28;87227;-80
2023/08/05 13:11:54;;;;;;;4.38;1.67;;;17.90;92.40;;;;;;5717521;22;88845;-81
2023/08/05 13:16:55;;;;;;;1.80;1.30;;;18.20;92.20;;;;;;5786828;22;89064;-80
2023/08/05 13:19:23;;;;;;;4.35;1.70;;;18.30;92.10;;;;;;5595996;22;87793;-80
2023/08/05 13:29:35;;;;;;;5.47;1.70;;;18.90;91.60;;;;;;5498450;22;88286;-81
2023/08/05 13:44:59;;;;;;;4.75;1.80;;;19.00;89.00;;;;;;5886036;22;88105;-82
2023/08/05 13:55:14;;;;;;;3.30;1.50;;;19.00;90.90;;;;;;5633373;22;88474;-81
2023/08/05 14:00:24;;;;;;;4.80;2.03;;;18.90;89.80;;;;;;5690623;22;88355;-81
2023/08/05 14:02:51;;;;;;;2.72;1.20;;;18.90;90.90;;;;;;5019438;28;87116;-81
2023/08/05 14:05:17;;;;;;;6.22;1.48;;;18.70;85.70;;;;;;5009883;28;89578;-80
2023/08/05 14:10:17;;;;;;;4.75;1.48;;;18.30;86.30;;;;;;4934947;28;87100;-96
2023/08/05 14:12:42;;;;;;;3.38;1.65;;;18.20;86.00;;;;;;4938013;28;87137;-95